ADDS METAR Data INFO
IDs: Format: Raw Decoded Include TAF

Data at: 1406 UTC 24 Feb 2018

KLAX 241353Z 07003KT 10SM CLR 06/M07 A3033 RMK AO2 SLP268 T00611072
KLAX 241253Z 00000KT 10SM CLR 07/M08 A3032 RMK AO2 SLP265 T00721078
KLAX 241153Z 30003KT 10SM CLR 08/M07 A3031 RMK AO2 SLP264 T00781067 10106 20067 53006
KLAX 241053Z 00000KT 10SM CLR 07/M07 A3030 RMK AO2 SLP259 T00721067
KLAX 240953Z 11004KT 10SM CLR 08/M07 A3030 RMK AO2 SLP258 T00781072
KLAX 240853Z 01006KT 10SM CLR 10/M08 A3030 RMK AO2 SLP258 T01001078 53010
KLAX 240753Z 36008KT 10SM CLR 10/M07 A3028 RMK AO2 SLP254 T01001072 401500083
KLAX 240653Z 36011KT 10SM CLR 11/M07 A3027 RMK AO2 SLP250 T01061072
KLAX 240553Z 36007KT 10SM CLR 11/M07 A3027 RMK AO2 SLP248 T01061072 10144 20106 53013
KLAX 240453Z 36009KT 10SM CLR 11/M07 A3025 RMK AO2 SLP242 T01061067
KLAX 240353Z 34008G16KT 10SM CLR 11/M07 A3024 RMK AO2 SLP240 T01111067
KLAX 240253Z 31009KT 10SM FEW040 11/M07 A3023 RMK AO2 SLP236 T01111072 53016
KLAX 240153Z 33015G25KT 10SM FEW040 12/M07 A3020 RMK AO2 PK WND 34027/0112 SLP226 T01171072
KLAX 240053Z 33015G25KT 10SM FEW065 13/M07 A3019 RMK AO2 PK WND 34031/0022 SLP223 T01281072
KLAX 232353Z 33014G22KT 10SM FEW065 14/M08 A3018 RMK AO2 PK WND 32026/2328 WSHFT 2309 SLP219 T01441078 10150 20122 55005
KLAX 232328Z 33016G26KT 10SM FEW035 FEW065 14/M08 A3017 RMK AO2 PK WND 32026/2328 WSHFT 2309 T01441083
KLAX 232253Z 26021KT 10SM FEW030 FEW065 14/01 A3017 RMK AO2 SLP217 T01440011
KLAX 232153Z 26017KT 10SM FEW030 FEW065 14/M01 A3018 RMK AO2 SLP220 T01391011
KLAX 232053Z 27019KT 10SM FEW025 FEW060 14/M02 A3019 RMK AO2 SLP224 T01391022 58013
KLAX 231953Z 26015KT 10SM FEW020 FEW060 13/M03 A3022 RMK AO2 SLP231 T01281028
KLAX 231853Z 32010G20KT 10SM FEW017 FEW060 13/M06 A3022 RMK AO2 SLP233 T01331056
KLAX 231753Z 32013KT 10SM FEW014 FEW055 12/M06 A3023 RMK AO2 SLP237 T01221056 10122 20083 51013
KLAX 231653Z 01010G20KT 10SM FEW012 FEW050 12/M05 A3023 RMK AO2 SLP235 T01171050
KLAX 231553Z 34008G17KT 310V010 10SM FEW010 FEW027 SCT060 10/M05 A3021 RMK AO2 SLP230 T01001050
KLAX 231453Z 32006KT 10SM FEW010 FEW030 SCT060 08/M03 A3020 RMK AO2 SLP226 T00831033 53014
KLAX 231353Z 32009KT 10SM FEW028 FEW060 09/00 A3018 RMK AO2 SLP219 T00890000 $
KLAX 231253Z 32005KT 10SM FEW028 09/02 A3016 RMK AO2 SLP212 T00890022 $
KLAX 231153Z 28013KT 10SM FEW028 10/03 A3016 RMK AO2 SLP211 T01000028 10117 20094 57009 $
KLAX 231053Z COR 30010KT 10SM FE028 11/04 A3016 RMK AO2 SLP213 T01060044 $
KLAX 230953Z 28004KT 10SM FEW040 09/02 A3018 RMK AO2 SLP218 T00940022 $
KLAX 230853Z 34005KT 10SM FEW038 10/04 A3018 RMK AO2 SLP219 T01000039 53002 $
KLAX 230753Z 33006KT 10SM FEW038 10/04 A3018 RMK AO2 SLP218 T01000044 401500061 $
KLAX 230653Z 23004KT 10SM FEW015 FEW038 11/05 A3017 RMK AO2 SLP216 T01110050 $
KLAX 230553Z 23006KT 10SM FEW038 12/06 A3018 RMK AO2 SLP216 T01170056 10144 20117 51001 $
KLAX 230453Z 26010KT 10SM FEW031 FEW038 12/06 A3017 RMK AO2 SLP217 T01170056 $
KLAX 230353Z 27016KT 10SM FEW031 12/05 A3018 RMK AO2 SLP219 T01170050 $
KLAX 230253Z 26018KT 10SM FEW035 12/05 A3017 RMK AO2 SLP217 T01220050 55001 $